createdAt,value
2022-11-12T00:01:13.546Z,18.97
2022-11-12T00:03:42.416Z,19.47
2022-11-12T00:06:10.254Z,17.63
2022-11-12T00:08:38.072Z,19.17
2022-11-12T00:11:06.179Z,17.67
2022-11-12T00:13:34.013Z,19.93
2022-11-12T00:16:01.951Z,19.70
2022-11-12T00:18:29.986Z,19.07
2022-11-12T00:20:57.789Z,19.73
2022-11-12T00:23:25.584Z,17.97
2022-11-12T00:26:00.645Z,18.53
2022-11-12T00:28:32.224Z,21.93
2022-11-12T00:31:09.000Z,21.60
2022-11-12T00:33:40.799Z,20.77
2022-11-12T00:36:09.197Z,20.43
2022-11-12T00:38:37.001Z,17.33
2022-11-12T00:41:04.867Z,24.73
2022-11-12T00:43:32.609Z,21.40
2022-11-12T00:46:00.338Z,20.10
2022-11-12T00:48:28.423Z,18.93
2022-11-12T00:51:04.031Z,19.87
2022-11-12T00:53:31.942Z,19.53
2022-11-12T00:56:04.464Z,19.83
2022-11-12T00:58:33.690Z,21.37
2022-11-12T01:01:14.846Z,22.70
2022-11-12T01:03:42.992Z,19.23
2022-11-12T01:06:16.020Z,22.17
2022-11-12T01:08:44.085Z,19.63
2022-11-12T01:11:13.493Z,21.47
2022-11-12T01:13:44.514Z,21.93
2022-11-12T01:16:17.655Z,21.53
2022-11-12T01:18:45.616Z,19.63
2022-11-12T01:21:13.775Z,21.17
2022-11-12T01:23:42.602Z,21.63
2022-11-12T01:26:12.402Z,24.93
2022-11-12T01:28:40.181Z,23.83
2022-11-12T01:31:14.852Z,20.57
2022-11-12T01:33:43.086Z,24.83
2022-11-12T01:36:11.479Z,20.90
2022-11-12T01:38:39.704Z,21.37
2022-11-12T01:41:07.776Z,23.83
2022-11-12T01:43:35.790Z,22.07
2022-11-12T01:46:05.273Z,21.33
2022-11-12T01:48:39.292Z,16.90
2022-11-12T01:51:07.183Z,17.03
2022-11-12T01:53:41.757Z,17.10
2022-11-12T01:56:09.610Z,19.23
2022-11-12T01:58:37.527Z,18.97
2022-11-12T02:01:05.525Z,16.97
2022-11-12T02:03:33.923Z,20.20
2022-11-12T02:06:09.023Z,18.50
2022-11-12T02:08:36.840Z,18.03
2022-11-12T02:11:18.752Z,19.27
2022-11-12T02:13:59.098Z,16.20
2022-11-12T02:16:48.698Z,16.77
2022-11-12T02:19:17.103Z,18.10
2022-11-12T02:21:45.240Z,15.57
2022-11-12T02:24:12.890Z,20.33
2022-11-12T02:26:44.391Z,19.00
2022-11-12T02:29:12.296Z,19.43
2022-11-12T02:31:40.169Z,19.60
2022-11-12T02:34:07.995Z,20.33
2022-11-12T02:36:35.731Z,19.60
2022-11-12T02:39:03.617Z,19.67
2022-11-12T02:41:31.531Z,20.17
2022-11-12T02:43:59.298Z,18.77
2022-11-12T02:46:27.130Z,20.13
2022-11-12T02:48:55.017Z,23.07
2022-11-12T02:51:22.824Z,21.13
2022-11-12T02:53:50.587Z,19.07
2022-11-12T02:56:18.398Z,20.60
2022-11-12T02:58:46.175Z,21.63
2022-11-12T03:01:14.000Z,21.93
2022-11-12T03:03:41.872Z,22.20
2022-11-12T03:06:09.682Z,19.70
2022-11-12T03:08:37.500Z,19.47
2022-11-12T03:11:09.863Z,19.57
2022-11-12T03:13:37.677Z,19.73
2022-11-12T03:16:05.753Z,22.00
2022-11-12T03:18:33.811Z,20.60
2022-11-12T03:21:01.580Z,19.30
2022-11-12T03:23:29.394Z,21.90
2022-11-12T03:25:57.295Z,19.20
2022-11-12T03:28:25.445Z,22.20
2022-11-12T03:30:53.596Z,22.63
2022-11-12T03:33:21.416Z,24.40
2022-11-12T03:35:49.200Z,20.23
2022-11-12T03:38:17.041Z,20.27
2022-11-12T03:40:44.881Z,24.60
2022-11-12T03:43:12.666Z,21.77
2022-11-12T03:45:40.553Z,23.47
2022-11-12T03:48:08.439Z,22.13
2022-11-12T03:50:36.299Z,22.73
2022-11-12T03:53:04.345Z,20.53
2022-11-12T03:55:32.449Z,20.63
2022-11-12T03:58:00.488Z,23.63
2022-11-12T04:00:29.086Z,20.20
2022-11-12T04:02:57.239Z,24.07
2022-11-12T04:05:43.695Z,22.87
2022-11-12T04:08:33.540Z,22.13
2022-11-12T04:11:01.394Z,22.37
2022-11-12T04:13:29.254Z,21.43
2022-11-12T04:16:19.687Z,21.77
2022-11-12T04:19:07.045Z,23.00
2022-11-12T04:21:53.186Z,23.93
2022-11-12T04:24:47.074Z,24.10
2022-11-12T04:27:16.069Z,20.93
2022-11-12T04:30:02.992Z,22.63
2022-11-12T04:32:31.414Z,24.13
2022-11-12T04:34:59.428Z,21.33
2022-11-12T04:37:29.183Z,24.00
2022-11-12T04:39:57.007Z,24.57
2022-11-12T04:42:43.278Z,21.23
2022-11-12T04:45:11.590Z,23.33
2022-11-12T04:47:40.695Z,24.30
2022-11-12T04:50:10.414Z,23.37
2022-11-12T04:52:38.234Z,22.57
2022-11-12T04:55:06.450Z,26.83
2022-11-12T04:57:34.365Z,23.63
2022-11-12T05:00:02.171Z,24.53
2022-11-12T05:02:30.033Z,23.10
2022-11-12T05:04:58.046Z,23.60
2022-11-12T05:07:25.849Z,24.27
2022-11-12T05:09:53.780Z,22.80
2022-11-12T05:12:21.554Z,22.70
2022-11-12T05:14:49.367Z,21.90
2022-11-12T05:17:17.151Z,21.37
2022-11-12T05:19:45.020Z,23.47
2022-11-12T05:22:33.290Z,20.97
2022-11-12T05:25:00.900Z,22.37
2022-11-12T05:27:29.088Z,22.27
2022-11-12T05:29:56.858Z,22.63
2022-11-12T05:32:24.827Z,21.37
2022-11-12T05:34:52.600Z,21.47
2022-11-12T05:37:20.437Z,23.63
2022-11-12T05:39:48.258Z,21.20
2022-11-12T05:42:16.038Z,21.60
2022-11-12T05:44:43.985Z,24.07
2022-11-12T05:47:11.750Z,21.27
2022-11-12T05:49:39.548Z,23.30
2022-11-12T05:52:07.427Z,21.37
2022-11-12T05:54:35.226Z,22.10
2022-11-12T05:57:02.933Z,21.83
2022-11-12T05:59:30.689Z,23.60
2022-11-12T06:01:58.418Z,22.50
2022-11-12T06:04:27.413Z,23.53
2022-11-12T06:06:55.218Z,24.50
2022-11-12T06:09:23.047Z,26.70
2022-11-12T06:11:51.210Z,23.73
2022-11-12T06:14:19.101Z,24.43
2022-11-12T06:16:46.914Z,24.67
2022-11-12T06:19:14.734Z,21.80
2022-11-12T06:21:42.688Z,22.23
2022-11-12T06:24:10.756Z,23.37
2022-11-12T06:26:39.156Z,22.60
2022-11-12T06:29:07.069Z,19.63
2022-11-12T06:31:34.928Z,20.00
2022-11-12T06:34:04.336Z,20.80
2022-11-12T06:36:32.358Z,18.50
2022-11-12T06:39:00.215Z,17.37
2022-11-12T06:41:27.969Z,20.97
2022-11-12T06:43:55.865Z,21.37
2022-11-12T06:46:23.674Z,20.70
2022-11-12T06:48:51.517Z,21.40
2022-11-12T06:51:20.510Z,19.43
2022-11-12T06:53:48.481Z,18.03
2022-11-12T06:56:16.533Z,18.93
2022-11-12T06:58:44.574Z,21.50
2022-11-12T07:01:14.222Z,21.23
2022-11-12T07:03:43.000Z,23.13
2022-11-12T07:06:15.288Z,22.67
2022-11-12T07:08:43.418Z,21.73
2022-11-12T07:11:11.488Z,21.00
2022-11-12T07:13:39.369Z,21.80
2022-11-12T07:16:08.902Z,21.20
2022-11-12T07:18:36.785Z,23.47
2022-11-12T07:21:14.615Z,22.20
2022-11-12T07:23:42.438Z,20.03
2022-11-12T07:26:21.624Z,23.50
2022-11-12T07:28:51.488Z,20.50
2022-11-12T07:31:20.035Z,20.13
2022-11-12T07:33:50.039Z,21.83
2022-11-12T07:36:19.474Z,21.90
2022-11-12T07:38:47.522Z,20.10
2022-11-12T07:41:15.942Z,21.63
2022-11-12T07:43:45.076Z,19.87
2022-11-12T07:46:17.721Z,21.00
2022-11-12T07:48:46.191Z,22.07
2022-11-12T07:51:28.289Z,23.87
2022-11-12T07:53:59.475Z,21.80
2022-11-12T07:56:28.225Z,21.53
2022-11-12T07:58:56.126Z,22.60
2022-11-12T08:01:37.875Z,19.37
2022-11-12T08:04:07.225Z,19.23
2022-11-12T08:06:35.463Z,22.60
2022-11-12T08:09:05.874Z,20.47
2022-11-12T08:11:33.886Z,18.93
2022-11-12T08:14:02.046Z,20.10
2022-11-12T08:16:29.963Z,20.37
2022-11-12T08:18:57.837Z,19.53
2022-11-12T08:21:25.640Z,18.80
2022-11-12T08:23:53.715Z,22.37
2022-11-12T08:26:21.627Z,20.27
2022-11-12T08:28:49.602Z,21.67
2022-11-12T08:31:19.331Z,19.83
2022-11-12T08:33:47.252Z,25.17
2022-11-12T08:36:16.166Z,17.40
2022-11-12T08:38:44.293Z,16.60
2022-11-12T08:41:14.056Z,15.53
2022-11-12T08:43:42.431Z,13.97
2022-11-12T08:46:10.250Z,15.00
2022-11-12T08:48:38.305Z,12.00
2022-11-12T08:51:06.501Z,15.67
2022-11-12T08:53:34.330Z,13.13
2022-11-12T08:56:02.160Z,13.00
2022-11-12T08:58:30.393Z,10.73
2022-11-12T09:00:58.649Z,13.27
2022-11-12T09:03:27.025Z,15.57
2022-11-12T09:05:54.966Z,13.90
2022-11-12T09:08:24.685Z,14.13
2022-11-12T09:10:53.149Z,15.73
2022-11-12T09:13:21.241Z,17.17
2022-11-12T09:15:49.249Z,16.30
2022-11-12T09:18:18.345Z,12.67
2022-11-12T09:20:46.640Z,13.80
2022-11-12T09:23:17.348Z,16.20
2022-11-12T09:25:45.178Z,15.53
2022-11-12T09:28:14.897Z,14.13
2022-11-12T09:30:47.901Z,15.20
2022-11-12T09:33:16.412Z,14.97
2022-11-12T09:35:44.550Z,17.80
2022-11-12T09:38:12.556Z,13.03
2022-11-12T09:40:52.529Z,13.10
2022-11-12T09:43:27.029Z,15.30
2022-11-12T09:46:21.513Z,11.87
2022-11-12T09:48:49.430Z,13.10
2022-11-12T09:51:27.200Z,14.90
2022-11-12T09:54:24.088Z,13.03
2022-11-12T09:56:52.168Z,13.47
2022-11-12T09:59:20.056Z,15.30
2022-11-12T10:02:01.485Z,13.73
2022-11-12T10:04:58.681Z,12.50
2022-11-12T10:07:44.990Z,14.03
2022-11-12T10:10:16.457Z,14.27
2022-11-12T10:13:08.711Z,16.77
2022-11-12T10:16:17.195Z,15.00
2022-11-12T10:19:10.760Z,14.40
2022-11-12T10:21:41.509Z,15.13
2022-11-12T10:24:10.121Z,13.77
2022-11-12T10:26:39.608Z,15.83
2022-11-12T10:29:23.757Z,16.30
2022-11-12T10:31:51.711Z,14.53
2022-11-12T10:34:22.040Z,14.70
2022-11-12T10:36:55.584Z,14.23
2022-11-12T10:39:40.706Z,14.03
2022-11-12T10:42:12.667Z,13.13
2022-11-12T10:44:41.291Z,16.20
2022-11-12T10:47:31.902Z,14.90
2022-11-12T10:50:06.421Z,14.33
2022-11-12T10:52:34.467Z,13.23
2022-11-12T10:55:26.017Z,14.67
2022-11-12T10:58:12.804Z,14.03
2022-11-12T11:01:00.466Z,13.17
2022-11-12T11:03:30.513Z,12.50
2022-11-12T11:06:00.283Z,10.53
2022-11-12T11:08:51.646Z,11.57
2022-11-12T11:11:27.673Z,13.53
2022-11-12T11:14:10.453Z,13.97
2022-11-12T11:16:50.947Z,13.90
2022-11-12T11:19:19.131Z,12.83
2022-11-12T11:21:50.964Z,14.97
2022-11-12T11:24:57.625Z,15.10
2022-11-12T11:27:44.984Z,13.37
2022-11-12T11:30:17.153Z,13.20
2022-11-12T11:33:02.631Z,14.63
2022-11-12T11:36:08.383Z,14.50
2022-11-12T11:38:46.506Z,13.50
2022-11-12T11:42:00.587Z,14.97
2022-11-12T11:44:43.929Z,13.10
2022-11-12T11:47:57.693Z,12.57
2022-11-12T11:51:02.341Z,15.27
2022-11-12T11:53:40.382Z,13.97
2022-11-12T11:56:16.635Z,15.73
2022-11-12T11:58:44.668Z,16.13
2022-11-12T12:01:24.966Z,13.77
2022-11-12T12:04:07.075Z,16.80
2022-11-12T12:06:47.532Z,16.60
2022-11-12T12:09:40.040Z,16.87
2022-11-12T12:12:21.256Z,16.33
2022-11-12T12:15:14.540Z,13.47
2022-11-12T12:18:03.149Z,16.70
2022-11-12T12:20:41.338Z,16.97
2022-11-12T12:23:23.528Z,16.00
2022-11-12T12:25:54.915Z,17.67
2022-11-12T12:28:42.379Z,14.83
2022-11-12T12:31:18.184Z,16.40
2022-11-12T12:33:52.688Z,11.90
2022-11-12T12:36:40.640Z,12.53
2022-11-12T12:39:28.654Z,16.17
2022-11-12T12:42:06.104Z,16.13
2022-11-12T12:45:01.755Z,14.30
2022-11-12T12:47:30.740Z,14.20
2022-11-12T12:49:59.191Z,13.77
2022-11-12T12:52:28.492Z,15.10
2022-11-12T12:54:57.565Z,16.33
2022-11-12T12:57:36.864Z,14.97
2022-11-12T13:00:27.918Z,13.67
2022-11-12T13:02:55.999Z,14.93
2022-11-12T13:05:33.719Z,16.33
2022-11-12T13:08:07.376Z,14.43
2022-11-12T13:10:46.072Z,13.53
2022-11-12T13:13:20.341Z,14.73
2022-11-12T13:15:55.181Z,13.83
2022-11-12T13:18:41.964Z,14.03
2022-11-12T13:21:22.600Z,14.07
2022-11-12T13:24:12.356Z,17.43
2022-11-12T13:26:54.571Z,12.93
2022-11-12T13:29:28.949Z,13.43
2022-11-12T13:32:31.282Z,11.47
2022-11-12T13:35:18.351Z,11.67
2022-11-12T13:37:56.249Z,11.50
2022-11-12T13:40:50.935Z,13.77
2022-11-12T13:43:34.693Z,13.53
2022-11-12T13:46:08.642Z,11.50
2022-11-12T13:48:50.037Z,11.43
2022-11-12T13:51:26.923Z,11.77
2022-11-12T13:53:55.292Z,10.97
2022-11-12T13:56:35.083Z,11.50
2022-11-12T13:59:15.251Z,10.33
2022-11-12T14:01:43.615Z,10.43
2022-11-12T14:04:15.865Z,9.27
2022-11-12T14:07:08.474Z,12.70
2022-11-12T14:10:00.680Z,9.40
2022-11-12T14:13:13.722Z,10.30
2022-11-12T14:15:48.027Z,9.27
2022-11-12T14:18:20.853Z,9.27
2022-11-12T14:20:49.071Z,9.60
2022-11-12T14:23:24.138Z,11.13
2022-11-12T14:25:55.092Z,9.67
2022-11-12T14:28:28.147Z,8.30
2022-11-12T14:30:56.979Z,9.53
2022-11-12T14:33:28.229Z,8.80
2022-11-12T14:36:06.797Z,9.47
2022-11-12T14:38:39.088Z,10.27
2022-11-12T14:41:18.403Z,8.33
2022-11-12T14:44:07.446Z,8.63
2022-11-12T14:46:51.579Z,10.33
2022-11-12T14:49:43.876Z,8.40
2022-11-12T14:52:21.301Z,10.27
2022-11-12T14:54:58.470Z,8.93
2022-11-12T14:57:30.462Z,10.47
2022-11-12T14:59:58.759Z,9.30
2022-11-12T15:02:57.817Z,8.47
2022-11-12T15:05:22.179Z,9.67
2022-11-12T15:07:58.886Z,6.73
2022-11-12T15:10:39.736Z,7.57
2022-11-12T15:13:27.356Z,8.33
2022-11-12T15:16:08.768Z,8.83
2022-11-12T15:18:37.067Z,6.90
2022-11-12T15:21:14.061Z,8.67
2022-11-12T15:23:50.172Z,7.87
2022-11-12T15:26:37.952Z,7.90
2022-11-12T15:29:11.801Z,8.57
2022-11-12T15:31:47.918Z,8.23
2022-11-12T15:34:41.093Z,8.00
2022-11-12T15:37:21.733Z,8.40
2022-11-12T15:39:54.020Z,7.20
2022-11-12T15:42:24.846Z,8.77
2022-11-12T15:44:53.279Z,9.60
2022-11-12T15:47:22.692Z,7.90
2022-11-12T15:49:54.807Z,9.40
2022-11-12T15:52:23.193Z,10.77
2022-11-12T15:54:51.239Z,11.10
2022-11-12T15:57:32.802Z,9.03
2022-11-12T16:00:08.481Z,9.17
2022-11-12T16:02:37.135Z,10.53
2022-11-12T16:05:05.229Z,10.77
2022-11-12T16:07:33.310Z,9.00
2022-11-12T16:10:01.392Z,10.03
2022-11-12T16:12:29.467Z,9.90
2022-11-12T16:14:57.837Z,9.40
2022-11-12T16:17:26.098Z,9.33
2022-11-12T16:19:54.131Z,10.10
2022-11-12T16:22:21.934Z,10.33
2022-11-12T16:24:49.787Z,9.23
2022-11-12T16:27:17.623Z,9.97
2022-11-12T16:29:45.418Z,10.90
2022-11-12T16:32:15.346Z,8.47
2022-11-12T16:34:43.198Z,9.90
2022-11-12T16:37:14.367Z,9.20
2022-11-12T16:39:42.263Z,9.57
2022-11-12T16:42:13.356Z,9.37
2022-11-12T16:44:41.313Z,10.97
2022-11-12T16:47:11.322Z,8.67
2022-11-12T16:49:39.482Z,8.97
2022-11-12T16:52:09.376Z,10.47
2022-11-12T16:54:37.314Z,11.23
2022-11-12T16:57:05.413Z,11.00
2022-11-12T16:59:33.433Z,11.70
2022-11-12T17:02:01.444Z,10.37
2022-11-12T17:04:29.321Z,11.23
2022-11-12T17:06:59.928Z,10.00
2022-11-12T17:09:28.835Z,13.90
2022-11-12T17:11:56.878Z,12.00
2022-11-12T17:14:28.303Z,12.40
2022-11-12T17:16:56.726Z,13.10
2022-11-12T17:19:24.734Z,12.57
2022-11-12T17:21:52.852Z,12.53
2022-11-12T17:24:21.101Z,12.43
2022-11-12T17:26:49.040Z,12.10
2022-11-12T17:29:17.305Z,12.70
2022-11-12T17:31:49.576Z,11.30
2022-11-12T17:34:17.542Z,11.97
2022-11-12T17:36:45.774Z,11.13
2022-11-12T17:39:14.096Z,13.53
2022-11-12T17:41:42.041Z,12.27
2022-11-12T17:44:12.785Z,12.90
2022-11-12T17:46:41.272Z,14.83
2022-11-12T17:49:10.787Z,11.10
2022-11-12T17:51:38.842Z,11.10
2022-11-12T17:54:06.978Z,12.43
2022-11-12T17:56:37.155Z,12.00
2022-11-12T17:59:05.526Z,12.87
2022-11-12T18:01:34.168Z,12.57
2022-11-12T18:04:02.245Z,14.30
2022-11-12T18:06:32.010Z,15.77
2022-11-12T18:09:07.938Z,15.50
2022-11-12T18:11:43.972Z,12.97
2022-11-12T18:14:12.099Z,15.07
2022-11-12T18:16:40.191Z,13.17
2022-11-12T18:19:12.346Z,15.23
2022-11-12T18:21:41.641Z,16.97
2022-11-12T18:24:16.664Z,17.47
2022-11-12T18:26:46.530Z,17.03
2022-11-12T18:29:15.164Z,15.40
2022-11-12T18:31:43.396Z,16.67
2022-11-12T18:34:16.771Z,15.50
2022-11-12T18:36:44.925Z,14.20
2022-11-12T18:39:13.258Z,17.37
2022-11-12T18:41:41.304Z,15.97
2022-11-12T18:44:10.773Z,15.30
2022-11-12T18:46:44.737Z,15.40
2022-11-12T18:49:18.103Z,12.40
2022-11-12T18:51:50.794Z,13.87
2022-11-12T18:54:21.655Z,16.40
2022-11-12T18:57:02.192Z,14.50
2022-11-12T18:59:35.507Z,15.90
2022-11-12T19:02:12.052Z,16.40
2022-11-12T19:04:45.537Z,15.97
2022-11-12T19:07:14.017Z,16.13
2022-11-12T19:09:56.849Z,14.50
2022-11-12T19:12:30.374Z,16.30
2022-11-12T19:15:03.367Z,17.20
2022-11-12T19:17:34.995Z,15.00
2022-11-12T19:20:03.151Z,14.87
2022-11-12T19:22:31.646Z,19.67
2022-11-12T19:24:59.789Z,16.90
2022-11-12T19:27:28.159Z,13.83
2022-11-12T19:30:02.446Z,16.00
2022-11-12T19:32:31.485Z,13.07
2022-11-12T19:35:01.285Z,12.77
2022-11-12T19:37:34.179Z,13.93
2022-11-12T19:40:03.948Z,12.97
2022-11-12T19:42:32.578Z,13.57
2022-11-12T19:45:00.780Z,13.77
2022-11-12T19:47:28.685Z,12.37
2022-11-12T19:49:56.814Z,15.43
2022-11-12T19:52:25.011Z,14.13
2022-11-12T19:54:53.180Z,11.27
2022-11-12T19:57:21.507Z,12.63
2022-11-12T19:59:49.519Z,14.07
2022-11-12T20:02:17.942Z,14.40
2022-11-12T20:04:46.322Z,15.07
2022-11-12T20:07:14.790Z,13.77
2022-11-12T20:09:42.951Z,11.80
2022-11-12T20:12:11.315Z,13.87
2022-11-12T20:14:39.313Z,15.13
2022-11-12T20:17:07.700Z,13.83
2022-11-12T20:19:35.792Z,14.10
2022-11-12T20:22:03.875Z,14.27
2022-11-12T20:24:31.986Z,14.50
2022-11-12T20:26:59.964Z,12.00
2022-11-12T20:29:28.400Z,12.20
2022-11-12T20:31:56.585Z,12.77
2022-11-12T20:34:24.781Z,11.60
2022-11-12T20:36:52.988Z,12.07
2022-11-12T20:39:21.284Z,13.27
2022-11-12T20:41:50.301Z,12.83
2022-11-12T20:44:18.892Z,13.33
2022-11-12T20:46:47.410Z,14.23
2022-11-12T20:49:15.422Z,12.33
2022-11-12T20:51:43.518Z,12.13
2022-11-12T20:54:17.035Z,11.90
2022-11-12T20:56:45.692Z,11.93
2022-11-12T20:59:14.255Z,11.37
2022-11-12T21:01:42.386Z,11.80
2022-11-12T21:04:18.777Z,10.83
2022-11-12T21:06:46.857Z,10.67
2022-11-12T21:09:14.893Z,9.10
2022-11-12T21:11:43.094Z,9.63
2022-11-12T21:14:12.411Z,10.97
2022-11-12T21:16:40.759Z,9.57
2022-11-12T21:19:08.936Z,11.00
2022-11-12T21:21:37.007Z,9.57
2022-11-12T21:24:05.455Z,11.60
2022-11-12T21:26:33.650Z,12.13
2022-11-12T21:29:06.175Z,11.73
2022-11-12T21:31:34.312Z,10.43
2022-11-12T21:34:05.563Z,10.23
2022-11-12T21:36:33.736Z,10.33
2022-11-12T21:39:02.158Z,9.67
2022-11-12T21:41:32.544Z,10.10
2022-11-12T21:44:00.719Z,9.23
2022-11-12T21:46:30.965Z,9.67
2022-11-12T21:49:04.158Z,9.03
2022-11-12T21:51:33.533Z,9.70
2022-11-12T21:54:03.610Z,7.13
2022-11-12T21:56:31.808Z,7.50
2022-11-12T21:59:01.746Z,9.17
2022-11-12T22:01:31.398Z,7.00
2022-11-12T22:04:01.273Z,8.40
2022-11-12T22:06:34.208Z,7.03
2022-11-12T22:09:02.433Z,8.47
2022-11-12T22:11:31.631Z,8.87
2022-11-12T22:13:59.773Z,8.07
2022-11-12T22:16:28.874Z,8.07
2022-11-12T22:18:57.591Z,6.70
2022-11-12T22:21:28.464Z,8.60
2022-11-12T22:23:57.079Z,7.87
2022-11-12T22:26:27.558Z,8.13
2022-11-12T22:28:57.248Z,8.47
2022-11-12T22:31:30.343Z,8.17
2022-11-12T22:34:01.802Z,6.97
2022-11-12T22:36:32.558Z,7.87
2022-11-12T22:39:01.921Z,8.60
2022-11-12T22:41:32.313Z,8.87
2022-11-12T22:44:01.721Z,8.10
2022-11-12T22:46:39.610Z,7.90
2022-11-12T22:49:07.895Z,6.60
2022-11-12T22:51:37.235Z,6.97
2022-11-12T22:54:07.251Z,7.60
2022-11-12T22:56:35.634Z,7.07
2022-11-12T22:59:06.106Z,7.53
2022-11-12T23:01:35.994Z,5.53
2022-11-12T23:04:06.061Z,8.50
2022-11-12T23:06:34.218Z,6.63
2022-11-12T23:09:02.277Z,8.90
2022-11-12T23:11:30.697Z,8.40
2022-11-12T23:13:59.038Z,7.23
2022-11-12T23:16:34.379Z,6.73
2022-11-12T23:19:02.705Z,7.13
2022-11-12T23:21:31.524Z,5.70
2022-11-12T23:24:00.403Z,7.17
2022-11-12T23:26:32.359Z,7.50
2022-11-12T23:29:05.047Z,7.03
2022-11-12T23:31:33.538Z,6.07
2022-11-12T23:34:01.987Z,6.00
2022-11-12T23:36:30.727Z,5.97
2022-11-12T23:38:59.212Z,7.30
2022-11-12T23:41:27.703Z,5.27
2022-11-12T23:43:56.369Z,6.17
2022-11-12T23:46:34.533Z,5.77
2022-11-12T23:49:02.959Z,5.17
2022-11-12T23:51:31.263Z,6.13
2022-11-12T23:54:00.381Z,7.47
2022-11-12T23:56:28.623Z,5.40
2022-11-12T23:58:57.154Z,5.53
